Time;durP1;ratioP1;P1;durP2;ratioP2;P2;SDS_P1;SDS_P2;PMS_P1;PMS_P2;Temp;Humidity;BMP_temperature;BMP_pressure;BME280_temperature;BME280_humidity;BME280_pressure;Samples;Min_cycle;Max_cycle;Signal;HPM_P1;HPM_P2
2023/02/18 00:01:58;;;;;;;49.90;35.30;;;;;;;7.41;61.36;101708.92;106778;1268;25341;-59
2023/02/18 00:04:26;;;;;;;51.30;36.70;;;;;;;7.42;61.29;101712.21;106909;1266;22548;-58
2023/02/18 00:06:55;;;;;;;53.60;36.30;;;;;;;7.43;61.38;101717.23;106533;1275;24407;-58
2023/02/18 00:09:25;;;;;;;51.00;37.00;;;;;;;7.44;61.68;101716.88;106796;1273;25341;-59
2023/02/18 00:11:53;;;;;;;50.60;35.50;;;;;;;7.44;61.91;101715.15;106542;1267;22549;-58
2023/02/18 00:14:22;;;;;;;50.40;35.70;;;;;;;7.46;61.93;101712.91;106932;1272;25347;-58
2023/02/18 00:16:51;;;;;;;48.20;33.40;;;;;;;7.48;61.93;101712.41;106079;1267;1002530;-58
2023/02/18 00:19:20;;;;;;;52.50;35.10;;;;;;;7.51;61.89;101709.33;106243;1266;1002968;-59
2023/02/18 00:21:49;;;;;;;52.30;36.20;;;;;;;7.54;61.77;101710.04;106944;1270;25536;-60
2023/02/18 00:24:17;;;;;;;55.10;34.80;;;;;;;7.56;61.63;101713.33;106974;1272;22616;-58
2023/02/18 00:26:49;;;;;;;48.50;34.90;;;;;;;7.56;61.75;101706.24;106896;1267;25602;-58
2023/02/18 00:29:18;;;;;;;48.20;34.30;;;;;;;7.58;61.75;101706.61;106255;1267;1003283;-58
2023/02/18 00:31:50;;;;;;;47.00;32.70;;;;;;;7.59;61.53;101709.89;106592;1271;22546;-58
2023/02/18 00:34:19;;;;;;;46.00;32.00;;;;;;;7.61;61.48;101702.64;106839;1267;25409;-58
2023/02/18 00:36:48;;;;;;;43.60;31.70;;;;;;;7.63;61.19;101698.34;106726;1271;25366;-58
2023/02/18 00:39:16;;;;;;;44.10;31.70;;;;;;;7.65;60.91;101692.83;107002;1266;24478;-58
2023/02/18 00:41:45;;;;;;;51.30;32.50;;;;;;;7.66;60.75;101683.67;107019;1267;25431;-58
2023/02/18 00:44:15;;;;;;;46.40;32.00;;;;;;;7.66;60.58;101682.13;106996;1272;24245;-58
2023/02/18 00:46:46;;;;;;;44.60;31.50;;;;;;;7.66;60.81;101679.71;107081;1267;25487;-58
2023/02/18 00:49:15;;;;;;;46.00;32.70;;;;;;;7.66;61.03;101673.50;106907;1274;24368;-58
2023/02/18 00:51:44;;;;;;;48.30;33.40;;;;;;;7.66;61.13;101672.30;107092;1267;22629;-58
2023/02/18 00:54:12;;;;;;;42.60;31.40;;;;;;;7.68;61.23;101679.38;107285;1266;24186;-58
2023/02/18 00:56:41;;;;;;;45.50;34.00;;;;;;;7.69;61.48;101680.92;107116;1265;25249;-58
2023/02/18 00:59:10;;;;;;;47.60;34.70;;;;;;;7.69;61.63;101671.77;107028;1266;25362;-58
2023/02/18 01:01:40;;;;;;;51.50;34.30;;;;;;;7.68;61.80;101669.54;106154;1271;1002986;-58
2023/02/18 01:04:15;;;;;;;50.30;33.80;;;;;;;7.69;62.16;101665.55;107096;1266;25344;-58
2023/02/18 01:06:43;;;;;;;50.10;33.50;;;;;;;7.70;62.61;101659.17;107039;1273;25441;-58
2023/02/18 01:09:12;;;;;;;44.20;32.30;;;;;;;7.71;62.76;101649.85;107174;1267;25372;-59
2023/02/18 01:11:41;;;;;;;44.60;33.10;;;;;;;7.75;63.03;101644.34;106276;1268;1003621;-60
2023/02/18 01:14:10;;;;;;;42.90;31.20;;;;;;;7.78;63.27;101631.06;107022;1266;25372;-58
2023/02/18 01:16:42;;;;;;;45.70;32.00;;;;;;;7.82;63.24;101620.02;106931;1267;25487;-60
2023/02/18 01:19:10;;;;;;;43.50;31.50;;;;;;;7.85;63.33;101612.25;106822;1271;25412;-60
2023/02/18 01:21:39;;;;;;;50.70;31.70;;;;;;;7.87;63.46;101610.54;107012;1273;25449;-59
2023/02/18 01:24:08;;;;;;;40.40;29.00;;;;;;;7.89;63.76;101605.52;106919;1273;22534;-59
2023/02/18 01:26:37;;;;;;;43.00;27.50;;;;;;;7.92;63.72;101596.71;107097;1267;25532;-59
2023/02/18 01:29:06;;;;;;;35.40;25.90;;;;;;;7.95;63.89;101591.20;107043;1267;25375;-59
2023/02/18 01:31:35;;;;;;;37.90;26.90;;;;;;;7.99;64.03;101583.79;107025;1267;24291;-60
2023/02/18 01:34:06;;;;;;;37.90;25.60;;;;;;;8.02;64.05;101580.34;106138;1272;1003136;-60
2023/02/18 01:36:35;;;;;;;36.30;26.60;;;;;;;8.05;64.09;101577.58;106380;1255;1002930;-58
2023/02/18 01:39:08;;;;;;;34.70;26.00;;;;;;;8.05;64.11;101572.39;106862;1273;25605;-59
2023/02/18 01:41:36;;;;;;;34.10;26.80;;;;;;;8.07;64.37;101564.80;107176;1267;25344;-60
2023/02/18 01:44:25;;;;;;;40.80;27.40;;;;;;;8.08;64.26;101557.53;107101;1273;25370;-60
2023/02/18 01:46:54;;;;;;;37.10;27.00;;;;;;;8.11;64.31;101557.71;107157;1267;22611;-60
2023/02/18 01:49:33;;;;;;;38.10;27.50;;;;;;;8.15;64.35;101550.28;106892;1270;25338;-60
2023/02/18 01:52:07;;;;;;;40.30;29.10;;;;;;;8.19;64.40;101547.69;107175;1267;22521;-59
2023/02/18 01:54:38;;;;;;;43.80;27.70;;;;;;;8.24;64.18;101544.08;107157;1267;25357;-59
2023/02/18 01:57:11;;;;;;;43.10;31.90;;;;;;;8.27;63.95;101537.17;107165;1267;22649;-59
2023/02/18 01:59:44;;;;;;;47.10;30.40;;;;;;;8.28;63.85;101532.69;106995;1271;24266;-58
2023/02/18 02:02:16;;;;;;;41.20;31.30;;;;;;;8.29;63.72;101533.03;107044;1267;22565;-60
2023/02/18 02:04:45;;;;;;;42.40;32.70;;;;;;;8.30;63.51;101528.02;107085;1267;24201;-59
2023/02/18 02:07:14;;;;;;;42.20;31.30;;;;;;;8.31;63.36;101523.17;107102;1267;24043;-58
2023/02/18 02:09:42;;;;;;;49.30;30.90;;;;;;;8.34;63.17;101516.95;107068;1267;22519;-61
2023/02/18 02:12:46;;;;;;;45.00;31.90;;;;;;;8.37;62.87;101511.94;107087;1267;22521;-59
2023/02/18 02:15:35;;;;;;;42.80;31.40;;;;;;;8.36;62.21;101513.15;106311;1267;1002977;-59
2023/02/18 02:18:35;;;;;;;46.70;32.10;;;;;;;8.36;62.10;101515.05;107173;1266;22569;-58
2023/02/18 02:21:38;;;;;;;41.50;31.30;;;;;;;8.34;61.75;101514.71;106990;1269;25433;-59
2023/02/18 02:24:22;;;;;;;44.10;31.30;;;;;;;8.33;61.44;101506.92;107050;1266;25400;-58
2023/02/18 02:27:03;;;;;;;45.70;31.70;;;;;;;8.34;61.33;101503.13;107095;1266;24277;-58
2023/02/18 02:29:53;;;;;;;46.30;34.60;;;;;;;8.30;61.11;101505.36;106837;1271;22540;-59
2023/02/18 02:32:27;;;;;;;41.40;32.10;;;;;;;8.32;60.84;101499.34;107124;1267;22605;-58
2023/02/18 02:35:00;;;;;;;49.70;32.50;;;;;;;8.36;60.51;101500.70;107075;1266;22660;-57
2023/02/18 02:37:34;;;;;;;;;;;;;;;8.36;60.41;101493.45;107192;1266;25335;-57
2023/02/18 02:40:34;;;;;;;47.30;33.20;;;;;;;8.36;60.33;101493.96;107050;1265;22655;-58
2023/02/18 02:43:17;;;;;;;51.80;32.20;;;;;;;8.36;60.26;101484.27;107012;1271;22530;-57
2023/02/18 02:46:03;;;;;;;49.10;34.30;;;;;;;8.37;60.21;101481.86;107148;1266;25422;-57
2023/02/18 02:48:46;;;;;;;44.10;32.80;;;;;;;8.37;60.01;101472.17;107103;1266;25412;-57
2023/02/18 02:51:55;;;;;;;48.30;34.20;;;;;;;8.37;60.23;101475.46;107009;1270;22522;-57
2023/02/18 02:54:25;;;;;;;51.20;34.00;;;;;;;8.36;60.15;101467.86;106349;1277;25313;-57
2023/02/18 02:57:27;;;;;;;46.70;32.50;;;;;;;8.36;60.25;101465.79;106578;1274;24614;-58
2023/02/18 03:00:10;;;;;;;49.60;32.80;;;;;;;8.37;60.19;101462.32;106583;1273;25347;-57
2023/02/18 03:02:48;;;;;;;46.70;32.60;;;;;;;8.38;60.17;101460.60;106575;1274;25572;-57
2023/02/18 03:05:51;;;;;;;47.80;32.00;;;;;;;8.39;59.96;101463.20;106604;1273;25351;-57
2023/02/18 03:08:44;;;;;;;45.60;31.00;;;;;;;8.40;59.80;101456.45;106406;1277;25537;-57
2023/02/18 03:11:14;;;;;;;42.10;31.20;;;;;;;8.40;59.62;101456.61;106305;1276;25413;-57
2023/02/18 03:13:55;;;;;;;39.30;30.00;;;;;;;8.40;59.53;101458.86;106338;1276;25507;-57
2023/02/18 03:16:27;;;;;;;41.40;30.80;;;;;;;8.42;59.42;101455.42;106096;1280;26718;-57
2023/02/18 03:19:09;;;;;;;40.00;30.70;;;;;;;8.45;59.21;101452.45;106245;1276;23875;-58
2023/02/18 03:21:52;;;;;;;47.60;32.00;;;;;;;8.46;59.13;101450.39;106059;1284;24196;-57
2023/02/18 03:24:23;;;;;;;41.10;29.90;;;;;;;8.46;58.69;101453.33;105749;1277;22601;-58
2023/02/18 03:26:58;;;;;;;41.40;30.70;;;;;;;8.45;58.86;101452.29;106091;1276;25451;-58
2023/02/18 03:29:26;;;;;;;41.00;30.20;;;;;;;8.44;58.82;101447.96;106015;1277;24239;-58
2023/02/18 03:32:01;;;;;;;41.80;31.80;;;;;;;8.44;58.91;101451.94;106041;1278;25403;-57
2023/02/18 03:34:31;;;;;;;39.30;30.00;;;;;;;8.45;58.87;101449.52;105662;1274;1003104;-58
2023/02/18 03:37:04;;;;;;;39.60;30.70;;;;;;;8.47;58.76;101449.86;105835;1270;1003806;-58
2023/02/18 03:39:33;;;;;;;39.20;29.90;;;;;;;8.47;58.74;101443.30;106783;1271;25355;-58
2023/02/18 03:42:04;;;;;;;39.60;29.40;;;;;;;8.47;58.58;101442.77;107189;1269;22524;-58
2023/02/18 03:44:33;;;;;;;39.90;29.80;;;;;;;8.46;58.49;101443.13;106868;1275;26558;-58
2023/02/18 03:47:01;;;;;;;39.70;29.70;;;;;;;8.45;58.51;101438.29;107215;1267;25366;-58
2023/02/18 03:49:30;;;;;;;35.80;28.90;;;;;;;8.45;58.53;101432.92;107000;1270;22534;-58
2023/02/18 03:51:59;;;;;;;38.20;30.20;;;;;;;8.46;58.51;101429.13;107138;1266;25493;-58
2023/02/18 03:54:28;;;;;;;37.40;28.80;;;;;;;8.46;58.38;101422.71;107149;1266;25351;-58
2023/02/18 03:56:57;;;;;;;37.70;30.20;;;;;;;8.46;58.38;101420.64;107018;1268;25375;-57
2023/02/18 03:59:25;;;;;;;37.00;29.40;;;;;;;8.45;58.42;101420.65;107129;1266;22537;-58
2023/02/18 04:01:54;;;;;;;38.70;29.80;;;;;;;8.42;58.49;101413.22;107073;1268;24256;-58
2023/02/18 04:04:22;;;;;;;37.00;29.10;;;;;;;8.41;58.64;101410.98;106672;1267;25469;-58
2023/02/18 04:06:52;;;;;;;38.20;30.10;;;;;;;8.41;58.79;101413.05;106817;1269;25450;-58
2023/02/18 04:09:22;;;;;;;37.60;30.00;;;;;;;8.42;59.03;101407.69;105838;1271;1002961;-58
2023/02/18 04:11:50;;;;;;;36.90;30.20;;;;;;;8.43;58.98;101402.33;106081;1273;1003656;-58
2023/02/18 04:14:19;;;;;;;38.10;29.70;;;;;;;8.43;58.83;101403.20;106968;1273;24296;-58
2023/02/18 04:16:50;;;;;;;38.50;29.50;;;;;;;8.43;58.94;101400.26;107005;1266;25330;-58
2023/02/18 04:19:19;;;;;;;40.90;30.50;;;;;;;8.44;58.98;101405.10;107181;1267;25440;-58
2023/02/18 04:21:48;;;;;;;38.30;29.60;;;;;;;8.44;59.23;101404.23;107125;1266;25341;-58
2023/02/18 04:24:17;;;;;;;38.30;29.10;;;;;;;8.44;59.25;101397.48;106338;1266;1003639;-58
2023/02/18 04:26:45;;;;;;;37.90;29.50;;;;;;;8.46;59.21;101396.09;106338;1267;1002845;-59
2023/02/18 04:29:13;;;;;;;39.60;30.20;;;;;;;8.47;59.07;101392.64;107053;1266;22532;-58
2023/02/18 04:31:43;;;;;;;39.90;30.40;;;;;;;8.47;59.17;101388.31;107008;1267;25355;-58
2023/02/18 04:34:11;;;;;;;36.00;29.40;;;;;;;8.47;59.27;101385.89;107078;1266;25440;-57
2023/02/18 04:36:40;;;;;;;39.30;30.30;;;;;;;8.40;59.41;101389.02;106931;1271;25428;-58
2023/02/18 04:39:08;;;;;;;37.70;29.80;;;;;;;8.48;59.35;101395.23;107147;1268;25344;-58
2023/02/18 04:41:37;;;;;;;38.00;29.80;;;;;;;8.50;59.32;101401.10;106941;1267;25354;-58
2023/02/18 04:44:08;;;;;;;39.00;30.10;;;;;;;8.52;59.31;101409.91;106974;1271;25404;-58
2023/02/18 04:46:37;;;;;;;39.90;30.70;;;;;;;8.54;59.24;101399.34;106972;1270;25344;-58
2023/02/18 04:49:06;;;;;;;37.90;30.10;;;;;;;8.54;59.19;101389.49;106303;1267;1003482;-58
2023/02/18 04:51:36;;;;;;;40.40;31.60;;;;;;;8.51;59.23;101398.15;107189;1267;25348;-58
2023/02/18 04:54:07;;;;;;;;;;;;;;;8.50;59.36;101401.63;106828;1257;25343;-58
2023/02/18 04:56:36;;;;;;;42.80;30.40;;;;;;;8.49;59.38;101402.31;107257;1267;25392;-58
2023/02/18 04:59:04;;;;;;;40.40;31.30;;;;;;;8.47;59.44;101405.95;107111;1266;25487;-58
2023/02/18 05:01:33;;;;;;;36.90;29.70;;;;;;;8.47;59.55;101403.18;107136;1266;25412;-58
2023/02/18 05:04:02;;;;;;;39.50;30.40;;;;;;;8.48;59.53;101408.19;107063;1267;25356;-58
2023/02/18 05:06:31;;;;;;;36.70;29.20;;;;;;;8.50;59.53;101413.55;106270;1271;1002916;-58
2023/02/18 05:08:59;;;;;;;39.10;30.00;;;;;;;8.49;59.56;101408.71;106982;1266;25436;-58
2023/02/18 05:11:28;;;;;;;39.70;31.00;;;;;;;8.49;59.66;101402.14;106728;1270;25417;-58
2023/02/18 05:13:57;;;;;;;39.60;31.10;;;;;;;8.49;59.84;101404.91;106892;1268;25375;-58
2023/02/18 05:16:25;;;;;;;38.20;30.50;;;;;;;8.49;59.82;101402.14;106938;1266;25347;-58
2023/02/18 05:18:54;;;;;;;41.80;31.70;;;;;;;8.49;59.87;101397.99;107083;1267;25463;-58
2023/02/18 05:21:22;;;;;;;39.40;31.70;;;;;;;8.51;60.00;101398.48;106989;1272;25365;-58
2023/02/18 05:23:51;;;;;;;40.60;30.80;;;;;;;8.52;60.08;101399.00;107156;1266;25369;-58
2023/02/18 05:26:20;;;;;;;39.70;30.90;;;;;;;8.52;59.85;101394.69;107023;1269;25384;-58
2023/02/18 05:28:48;;;;;;;39.80;31.50;;;;;;;8.51;60.22;101395.05;106912;1271;25357;-58
2023/02/18 05:31:17;;;;;;;42.00;32.50;;;;;;;8.48;60.28;101394.19;107160;1266;26157;-58
2023/02/18 05:33:46;;;;;;;41.60;31.50;;;;;;;8.48;60.56;101392.45;106874;1267;25459;-58
2023/02/18 05:36:15;;;;;;;39.80;29.90;;;;;;;8.48;60.59;101390.73;106989;1271;25380;-58
2023/02/18 05:38:45;;;;;;;41.00;31.70;;;;;;;8.48;60.80;101392.98;107023;1267;25379;-58
2023/02/18 05:41:14;;;;;;;42.00;31.60;;;;;;;8.49;60.76;101394.00;107037;1266;25297;-58
2023/02/18 05:46:30;;;;;;;38.30;29.90;;;;;;;8.48;61.06;101391.77;107064;1266;25496;-58
2023/02/18 05:48:59;;;;;;;39.20;29.50;;;;;;;8.48;61.32;101384.84;107076;1266;25526;-58
2023/02/18 05:51:27;;;;;;;38.20;30.60;;;;;;;8.49;61.44;101380.86;107054;1267;25393;-58
2023/02/18 05:57:17;;;;;;;36.60;30.20;;;;;;;8.57;61.66;101372.36;103742;1305;544890;-57
2023/02/18 05:59:45;;;;;;;41.30;30.90;;;;;;;8.57;61.69;101369.42;105899;1283;22558;-57
2023/02/18 06:02:13;;;;;;;39.40;29.90;;;;;;;8.58;61.83;101370.46;106103;1282;24337;-57
2023/02/18 06:04:42;;;;;;;38.20;29.20;;;;;;;8.58;61.74;101369.77;106188;1282;22547;-57
2023/02/18 06:07:10;;;;;;;37.60;28.60;;;;;;;8.58;61.91;101372.53;105872;1283;24197;-58
2023/02/18 06:09:40;;;;;;;35.40;28.00;;;;;;;8.60;62.07;101366.64;106118;1283;25364;-59
2023/02/18 06:12:10;;;;;;;38.60;29.80;;;;;;;8.63;62.25;101366.46;105127;1280;1003658;-58
2023/02/18 06:14:41;;;;;;;37.30;29.80;;;;;;;8.66;62.28;101361.77;106549;1276;25496;-57
2023/02/18 06:17:15;;;;;;;38.20;29.60;;;;;;;8.69;62.39;101355.19;105546;1276;1003104;-58
2023/02/18 06:19:44;;;;;;;35.10;28.30;;;;;;;8.69;62.43;101349.30;106493;1276;22544;-58
2023/02/18 06:22:13;;;;;;;34.90;28.50;;;;;;;8.71;62.67;101347.73;106799;1272;24221;-58
2023/02/18 06:24:42;;;;;;;34.40;27.30;;;;;;;8.73;62.77;101347.55;106769;1272;25427;-58
2023/02/18 06:27:10;;;;;;;33.40;27.50;;;;;;;8.76;62.94;101344.08;106572;1276;25341;-58
2023/02/18 06:29:39;;;;;;;34.30;27.30;;;;;;;8.82;63.00;101329.70;106787;1274;25391;-58
2023/02/18 06:32:07;;;;;;;35.00;27.60;;;;;;;8.87;63.14;101316.02;106793;1272;25382;-58
2023/02/18 06:34:36;;;;;;;34.20;26.60;;;;;;;8.91;63.22;101312.88;106850;1267;25567;-58
2023/02/18 06:37:05;;;;;;;35.00;26.90;;;;;;;8.95;63.31;101311.80;106899;1272;25344;-58
2023/02/18 06:39:38;;;;;;;31.80;25.50;;;;;;;9.00;63.26;101303.48;106827;1273;25421;-58
2023/02/18 06:42:06;;;;;;;34.20;26.50;;;;;;;9.04;63.47;101297.89;106816;1272;22729;-58
2023/02/18 06:44:36;;;;;;;35.80;25.20;;;;;;;9.09;63.74;101292.67;106512;1279;24238;-58
2023/02/18 06:47:06;;;;;;;32.80;24.80;;;;;;;9.15;63.57;101290.20;106831;1272;26510;-58
2023/02/18 06:49:35;;;;;;;30.20;24.90;;;;;;;9.21;63.71;101293.09;106763;1273;25322;-58
2023/02/18 06:52:04;;;;;;;31.60;25.20;;;;;;;9.28;63.75;101296.35;106642;1273;22532;-58
2023/02/18 06:54:33;;;;;;;29.30;24.20;;;;;;;9.33;63.82;101298.38;106842;1272;24404;-58
2023/02/18 06:57:01;;;;;;;29.30;24.60;;;;;;;9.39;63.81;101296.95;106100;1272;1015659;-58
2023/02/18 06:59:30;;;;;;;30.90;23.50;;;;;;;9.43;63.72;101284.09;106820;1272;25362;-58
2023/02/18 07:02:00;;;;;;;28.80;23.10;;;;;;;9.48;63.97;101281.96;106206;1275;25369;-57
2023/02/18 07:04:29;;;;;;;32.00;24.40;;;;;;;9.55;63.92;101281.55;106595;1270;25446;-57
2023/02/18 07:06:57;;;;;;;28.90;24.10;;;;;;;9.62;63.84;101283.20;106665;1276;24226;-57
2023/02/18 07:09:26;;;;;;;26.80;22.50;;;;;;;9.67;63.68;101287.50;106754;1273;25341;-57
2023/02/18 07:11:55;;;;;;;30.50;22.60;;;;;;;9.71;63.61;101281.75;106014;1273;1003093;-57
2023/02/18 07:14:25;;;;;;;95.20;59.10;;;;;;;9.73;63.61;101279.30;106824;1273;23329;-57
2023/02/18 07:16:53;;;;;;;39.40;29.20;;;;;;;9.77;63.79;101280.47;106704;1274;22763;-57
2023/02/18 07:19:25;;;;;;;39.90;31.40;;;;;;;9.82;63.74;101276.77;106727;1272;25353;-57
2023/02/18 07:21:56;;;;;;;29.30;24.10;;;;;;;9.88;63.71;101274.30;106699;1278;25363;-57
2023/02/18 07:24:25;;;;;;;28.30;20.70;;;;;;;9.94;63.63;101271.63;106714;1275;25558;-57
2023/02/18 07:26:53;;;;;;;26.20;19.70;;;;;;;9.99;63.69;101268.11;106834;1272;25344;-57
2023/02/18 07:29:21;;;;;;;25.60;20.50;;;;;;;10.04;63.67;101263.19;106851;1273;25391;-57
2023/02/18 07:53:37;;;;;;;27.60;21.70;;;;;;;8.54;71.86;101246.15;104995;1291;557711;-59
2023/02/18 07:56:05;;;;;;;25.70;21.40;;;;;;;9.60;67.22;101236.48;105947;1281;22533;-57
2023/02/18 07:58:34;;;;;;;26.80;20.80;;;;;;;9.76;66.63;101230.42;105283;1281;1003036;-57
2023/02/18 08:01:09;;;;;;;25.10;20.40;;;;;;;9.86;66.38;101220.08;106083;1281;22540;-57
2023/02/18 08:03:35;;;;;;;23.10;20.00;;;;;;;9.99;66.05;101218.20;106069;1284;22539;-57
2023/02/18 08:06:03;;;;;;;24.00;19.60;;;;;;;10.10;65.58;101217.38;105795;1279;281539;-57
2023/02/18 08:08:31;;;;;;;22.60;18.50;;;;;;;10.20;65.47;101212.79;106346;1280;25525;-57
2023/02/18 08:14:21;;;;;;;27.80;19.70;;;;;;;10.50;64.79;101213.91;103814;1296;544815;-57
2023/02/18 08:16:53;;;;;;;21.50;18.50;;;;;;;10.62;64.42;101211.99;106263;1280;22789;-57
2023/02/18 08:19:22;;;;;;;22.70;19.10;;;;;;;10.72;63.97;101206.65;105857;1287;24450;-58
2023/02/18 08:21:51;;;;;;;22.00;17.40;;;;;;;10.78;63.77;101202.05;106231;1280;25364;-58
2023/02/18 08:24:19;;;;;;;21.00;17.60;;;;;;;10.85;63.52;101207.83;106309;1280;25342;-57
2023/02/18 08:26:48;;;;;;;20.20;17.40;;;;;;;10.93;63.30;101205.62;105827;1280;25813;-59
2023/02/18 08:29:28;;;;;;;19.40;17.20;;;;;;;11.02;63.08;101202.52;106121;1280;25349;-59
2023/02/18 08:31:58;;;;;;;22.50;18.90;;;;;;;11.11;62.77;101203.23;106329;1280;25414;-58
2023/02/18 08:34:27;;;;;;;21.00;18.10;;;;;;;11.20;62.62;101202.22;106466;1279;25396;-58
2023/02/18 08:36:56;;;;;;;21.30;18.00;;;;;;;11.27;62.41;101202.61;106020;1281;25344;-58
2023/02/18 08:39:25;;;;;;;20.50;17.50;;;;;;;11.33;62.11;101200.05;105994;1285;25353;-58
2023/02/18 08:41:55;;;;;;;20.40;16.90;;;;;;;11.38;62.01;101198.93;106366;1279;25526;-58
2023/02/18 08:44:24;;;;;;;22.60;17.70;;;;;;;11.45;61.82;101195.00;106409;1279;22542;-58
2023/02/18 08:46:52;;;;;;;22.10;17.90;;;;;;;11.51;61.89;101198.37;106342;1280;25419;-58
2023/02/18 08:49:23;;;;;;;19.60;17.10;;;;;;;11.58;61.67;101204.84;106370;1279;24285;-58
2023/02/18 08:51:51;;;;;;;18.30;16.00;;;;;;;11.63;61.34;101201.60;106312;1285;25443;-58
2023/02/18 08:54:20;;;;;;;18.40;16.30;;;;;;;11.66;61.11;101201.55;106750;1269;25436;-58
2023/02/18 08:56:48;;;;;;;20.90;16.30;;;;;;;11.71;60.98;101200.79;106794;1270;24308;-58
2023/02/18 08:59:17;;;;;;;18.90;15.60;;;;;;;11.77;61.22;101200.15;106627;1270;25353;-58
2023/02/18 09:01:45;;;;;;;19.00;16.40;;;;;;;11.86;61.02;101197.72;106469;1269;25382;-58
2023/02/18 09:04:14;;;;;;;20.40;16.50;;;;;;;11.94;60.62;101193.73;106676;1254;22999;-59
2023/02/18 09:06:45;;;;;;;18.50;16.50;;;;;;;12.03;60.57;101205.36;106797;1270;25408;-58
2023/02/18 09:09:14;;;;;;;20.20;16.50;;;;;;;12.13;60.41;101208.80;106935;1273;22538;-58
2023/02/18 09:11:43;;;;;;;18.10;16.10;;;;;;;12.16;60.30;101214.98;106690;1271;24289;-58
2023/02/18 09:14:11;;;;;;;18.00;15.60;;;;;;;12.19;60.14;101214.40;106692;1261;24384;-58
2023/02/18 09:16:41;;;;;;;18.90;15.40;;;;;;;12.24;60.05;101207.18;106666;1274;25353;-58
2023/02/18 09:19:10;;;;;;;17.60;15.60;;;;;;;12.34;59.65;101204.17;106855;1270;22646;-58
2023/02/18 09:21:39;;;;;;;18.30;16.40;;;;;;;12.42;59.67;101197.39;106810;1270;25347;-58
2023/02/18 09:24:09;;;;;;;18.80;15.90;;;;;;;12.53;59.42;101199.05;106892;1270;22524;-58
2023/02/18 09:26:38;;;;;;;18.10;16.00;;;;;;;12.61;59.23;101195.73;106875;1270;22645;-58
2023/02/18 09:29:09;;;;;;;18.20;15.40;;;;;;;12.68;59.13;101196.42;106773;1263;22548;-58
2023/02/18 09:31:39;;;;;;;18.60;15.40;;;;;;;12.77;58.99;101200.91;106683;1270;25362;-58
2023/02/18 09:34:08;;;;;;;18.60;15.70;;;;;;;12.84;58.77;101197.80;106683;1270;23331;-59
2023/02/18 09:36:38;;;;;;;18.50;16.20;;;;;;;12.93;58.63;101197.75;106832;1276;25357;-58
2023/02/18 09:39:06;;;;;;;16.20;14.50;;;;;;;13.02;58.23;101191.08;106902;1275;24377;-58
2023/02/18 09:41:38;;;;;;;18.00;16.00;;;;;;;13.12;57.90;101187.75;106900;1276;25347;-59
2023/02/18 09:44:24;;;;;;;16.70;14.50;;;;;;;13.19;57.74;101185.81;106789;1273;22528;-58
2023/02/18 09:47:10;;;;;;;15.50;13.90;;;;;;;13.27;57.61;101189.08;106836;1273;25296;-58
2023/02/18 09:49:40;;;;;;;18.50;15.80;;;;;;;13.35;57.33;101190.96;106871;1270;25462;-58
2023/02/18 09:52:16;;;;;;;16.50;14.50;;;;;;;13.43;57.07;101198.05;106687;1277;22531;-58
2023/02/18 09:54:45;;;;;;;19.00;15.10;;;;;;;13.51;56.57;101190.02;106827;1270;22537;-58
2023/02/18 09:57:26;;;;;;;17.20;15.50;;;;;;;13.55;56.34;101182.59;106802;1270;25353;-58
2023/02/18 10:00:04;;;;;;;17.20;15.00;;;;;;;13.61;55.70;101187.14;106857;1270;22533;-58
2023/02/18 10:03:04;;;;;;;16.40;14.20;;;;;;;13.65;55.42;101177.63;106563;1271;22539;-59
2023/02/18 10:05:34;;;;;;;15.80;14.00;;;;;;;13.67;55.31;101180.48;106874;1270;25337;-58
2023/02/18 10:08:06;;;;;;;16.20;13.50;;;;;;;13.69;55.07;101186.20;107197;1273;26500;-58
2023/02/18 10:10:40;;;;;;;14.50;13.00;;;;;;;13.73;55.01;101187.84;107085;1264;24340;-59
2023/02/18 10:13:14;;;;;;;15.20;13.50;;;;;;;13.76;54.57;101182.87;107015;1264;25427;-59
2023/02/18 10:15:42;;;;;;;17.00;14.20;;;;;;;13.80;54.43;101179.98;107357;1270;25246;-59
2023/02/18 10:18:51;;;;;;;18.50;14.60;;;;;;;13.82;54.06;101181.80;106877;1270;25366;-59
2023/02/18 10:21:23;;;;;;;15.80;14.20;;;;;;;13.83;53.69;101175.86;106293;1276;22544;-59
2023/02/18 10:24:23;;;;;;;15.80;14.10;;;;;;;13.82;53.72;101173.12;106168;1280;24145;-60
2023/02/18 10:26:54;;;;;;;15.30;13.40;;;;;;;13.79;53.73;101172.30;106488;1272;25398;-60
2023/02/18 10:29:24;;;;;;;14.60;13.00;;;;;;;13.76;53.62;101168.73;106762;1276;22784;-59
2023/02/18 10:31:59;;;;;;;14.00;12.60;;;;;;;13.75;53.65;101167.55;106898;1276;24555;-59
2023/02/18 10:34:43;;;;;;;18.50;13.30;;;;;;;13.74;53.73;101157.65;107241;1270;22537;-60
2023/02/18 10:37:32;;;;;;;15.50;13.00;;;;;;;13.74;53.78;101152.75;107442;1276;25373;-59
2023/02/18 10:40:22;;;;;;;16.60;14.40;;;;;;;13.69;53.83;101140.85;106802;1277;26483;-60
2023/02/18 10:43:29;;;;;;;14.90;13.40;;;;;;;13.79;53.67;101135.16;106818;1269;25431;-59
2023/02/18 10:46:21;;;;;;;15.10;13.20;;;;;;;13.82;53.61;101127.08;106663;1277;25433;-59
2023/02/18 10:48:58;;;;;;;15.00;13.50;;;;;;;13.82;53.63;101119.41;106711;1282;25376;-59
2023/02/18 10:51:28;;;;;;;13.20;11.80;;;;;;;13.83;53.73;101122.68;106463;1273;25397;-60
2023/02/18 10:53:57;;;;;;;13.50;12.10;;;;;;;13.84;53.70;101119.69;106713;1276;22612;-59
2023/02/18 10:56:39;;;;;;;13.40;12.10;;;;;;;13.88;53.48;101112.59;106487;1266;25482;-59
2023/02/18 10:59:17;;;;;;;15.30;13.00;;;;;;;13.94;53.57;101101.43;106796;1270;23853;-59
2023/02/18 11:01:53;;;;;;;14.20;12.80;;;;;;;14.02;53.33;101098.73;106844;1268;25243;-60
2023/02/18 11:04:26;;;;;;;14.30;12.90;;;;;;;14.11;52.87;101102.13;107429;1254;23232;-60
2023/02/18 11:06:55;;;;;;;12.90;11.50;;;;;;;14.18;52.42;101099.98;107106;1263;22781;-60
2023/02/18 11:09:25;;;;;;;14.10;11.40;;;;;;;14.22;52.27;101096.52;106542;1260;1003069;-60
2023/02/18 11:12:02;;;;;;;14.90;13.00;;;;;;;14.25;52.24;101098.17;106471;1266;1003555;-60
2023/02/18 11:14:44;;;;;;;13.40;12.00;;;;;;;14.29;52.27;101094.08;107042;1263;25356;-59
2023/02/18 11:17:20;;;;;;;13.30;11.80;;;;;;;14.31;52.42;101095.74;107478;1257;25494;-60
2023/02/18 11:19:53;;;;;;;13.40;11.40;;;;;;;14.34;52.63;101093.04;107874;1260;22554;-60
2023/02/18 11:22:28;;;;;;;12.60;11.30;;;;;;;14.41;52.61;101088.81;107377;1260;23511;-61
2023/02/18 11:24:58;;;;;;;12.30;11.00;;;;;;;14.56;52.28;101080.11;107208;1260;22645;-59
2023/02/18 11:27:43;;;;;;;13.80;11.70;;;;;;;14.70;52.05;101082.08;107410;1260;22566;-59
2023/02/18 11:30:32;;;;;;;12.20;10.90;;;;;;;14.83;51.68;101084.79;107091;1269;22538;-58
2023/02/18 11:33:20;;;;;;;13.40;11.60;;;;;;;14.93;51.16;101075.02;107255;1261;22523;-59
2023/02/18 11:35:53;;;;;;;13.40;11.90;;;;;;;15.00;50.97;101062.36;107546;1264;25300;-59
2023/02/18 11:38:23;;;;;;;12.60;11.10;;;;;;;15.00;50.64;101038.09;107250;1261;22993;-59
2023/02/18 11:40:56;;;;;;;13.00;10.80;;;;;;;14.99;50.54;101032.87;107155;1263;22538;-60
2023/02/18 11:43:27;;;;;;;14.60;11.60;;;;;;;14.94;50.61;101038.84;106049;1273;1003074;-59
2023/02/18 11:46:14;;;;;;;11.60;10.40;;;;;;;14.97;50.86;101047.80;107149;1267;22527;-59
2023/02/18 11:48:44;;;;;;;10.40;9.30;;;;;;;14.99;50.78;101056.11;107156;1270;22760;-60
2023/02/18 11:51:38;;;;;;;10.10;9.10;;;;;;;15.03;51.02;101056.14;106767;1260;22665;-60
2023/02/18 11:54:25;;;;;;;9.40;8.40;;;;;;;15.13;50.81;101045.66;106788;1264;25545;-60
2023/02/18 11:56:56;;;;;;;8.60;7.70;;;;;;;15.22;50.72;101041.98;106341;1277;24228;-60
2023/02/18 11:59:25;;;;;;;11.00;7.90;;;;;;;15.32;50.43;101045.10;106525;1269;22549;-60
2023/02/18 12:02:22;;;;;;;8.50;7.60;;;;;;;15.41;50.15;101037.65;106572;1275;24854;-59
2023/02/18 12:05:04;;;;;;;8.70;7.70;;;;;;;15.49;49.85;101037.36;105992;1282;25372;-59